sensor_id;sensor_type;location;lat;lon;timestamp;temperature;humidity
2158;DHT22;41972;48.774;9.282;2023-04-01T00:01:29;8.10;99.90
2158;DHT22;41972;48.774;9.282;2023-04-01T00:03:54;8.10;99.90
2158;DHT22;41972;48.774;9.282;2023-04-01T00:06:21;8.10;99.90
2158;DHT22;41972;48.774;9.282;2023-04-01T00:08:47;8.20;99.90
2158;DHT22;41972;48.774;9.282;2023-04-01T00:11:13;8.10;99.90
2158;DHT22;41972;48.774;9.282;2023-04-01T00:13:40;8.20;99.90
2158;DHT22;41972;48.774;9.282;2023-04-01T00:16:07;8.20;99.90
2158;DHT22;41972;48.774;9.282;2023-04-01T00:18:33;8.20;99.90
2158;DHT22;41972;48.774;9.282;2023-04-01T00:20:58;8.30;99.90
2158;DHT22;41972;48.774;9.282;2023-04-01T00:23:24;8.30;99.90
2158;DHT22;41972;48.774;9.282;2023-04-01T00:25:50;8.30;99.90
2158;DHT22;41972;48.774;9.282;2023-04-01T00:28:17;8.30;99.90
2158;DHT22;41972;48.774;9.282;2023-04-01T00:30:43;8.30;99.90
2158;DHT22;41972;48.774;9.282;2023-04-01T00:33:08;8.20;99.90
2158;DHT22;41972;48.774;9.282;2023-04-01T00:35:34;8.20;99.90
2158;DHT22;41972;48.774;9.282;2023-04-01T00:38:00;8.20;99.90
2158;DHT22;41972;48.774;9.282;2023-04-01T00:40:35;8.10;99.90
2158;DHT22;41972;48.774;9.282;2023-04-01T00:43:01;8.20;99.90
2158;DHT22;41972;48.774;9.282;2023-04-01T00:45:34;8.10;99.90
2158;DHT22;41972;48.774;9.282;2023-04-01T00:48:05;8.10;99.90
2158;DHT22;41972;48.774;9.282;2023-04-01T00:50:33;8.10;99.90
2158;DHT22;41972;48.774;9.282;2023-04-01T00:53:01;8.10;99.90
2158;DHT22;41972;48.774;9.282;2023-04-01T00:55:29;8.00;99.90
2158;DHT22;41972;48.774;9.282;2023-04-01T00:57:57;8.10;99.90
2158;DHT22;41972;48.774;9.282;2023-04-01T01:00:24;8.20;99.90
2158;DHT22;41972;48.774;9.282;2023-04-01T01:02:51;8.20;99.90
2158;DHT22;41972;48.774;9.282;2023-04-01T01:05:21;8.10;99.90
2158;DHT22;41972;48.774;9.282;2023-04-01T01:10:43;8.20;99.90
2158;DHT22;41972;48.774;9.282;2023-04-01T01:13:36;8.10;99.90
2158;DHT22;41972;48.774;9.282;2023-04-01T01:16:20;8.20;99.90
2158;DHT22;41972;48.774;9.282;2023-04-01T01:21:47;8.10;99.90
2158;DHT22;41972;48.774;9.282;2023-04-01T01:24:51;8.00;99.90
2158;DHT22;41972;48.774;9.282;2023-04-01T01:27:20;8.10;99.90
2158;DHT22;41972;48.774;9.282;2023-04-01T01:30:00;8.00;99.90
2158;DHT22;41972;48.774;9.282;2023-04-01T01:35:37;8.00;99.90
2158;DHT22;41972;48.774;9.282;2023-04-01T01:38:10;8.00;99.90
2158;DHT22;41972;48.774;9.282;2023-04-01T01:40:39;8.10;99.90
2158;DHT22;41972;48.774;9.282;2023-04-01T01:43:10;8.10;99.90
2158;DHT22;41972;48.774;9.282;2023-04-01T01:45:42;8.20;99.90
2158;DHT22;41972;48.774;9.282;2023-04-01T01:48:11;8.20;99.90
2158;DHT22;41972;48.774;9.282;2023-04-01T01:50:37;8.10;99.90
2158;DHT22;41972;48.774;9.282;2023-04-01T01:53:09;8.20;99.90
2158;DHT22;41972;48.774;9.282;2023-04-01T01:55:37;8.10;99.90
2158;DHT22;41972;48.774;9.282;2023-04-01T01:58:18;8.10;99.90
2158;DHT22;41972;48.774;9.282;2023-04-01T02:00:49;8.00;99.90
2158;DHT22;41972;48.774;9.282;2023-04-01T02:03:17;8.00;99.90
2158;DHT22;41972;48.774;9.282;2023-04-01T02:05:46;8.10;99.90
2158;DHT22;41972;48.774;9.282;2023-04-01T02:08:30;7.90;99.90
2158;DHT22;41972;48.774;9.282;2023-04-01T02:11:05;8.00;99.90
2158;DHT22;41972;48.774;9.282;2023-04-01T02:13:45;7.90;99.90
2158;DHT22;41972;48.774;9.282;2023-04-01T02:16:23;7.80;99.90
2158;DHT22;41972;48.774;9.282;2023-04-01T02:18:52;7.90;99.90
2158;DHT22;41972;48.774;9.282;2023-04-01T02:21:21;7.90;99.90
2158;DHT22;41972;48.774;9.282;2023-04-01T02:23:47;7.90;99.90
2158;DHT22;41972;48.774;9.282;2023-04-01T02:26:14;7.80;99.90
2158;DHT22;41972;48.774;9.282;2023-04-01T02:28:41;7.90;99.90
2158;DHT22;41972;48.774;9.282;2023-04-01T02:31:10;7.90;99.90
2158;DHT22;41972;48.774;9.282;2023-04-01T02:33:37;7.90;99.90
2158;DHT22;41972;48.774;9.282;2023-04-01T02:36:04;7.90;99.90
2158;DHT22;41972;48.774;9.282;2023-04-01T02:38:30;7.80;99.90
2158;DHT22;41972;48.774;9.282;2023-04-01T02:40:59;7.90;99.90
2158;DHT22;41972;48.774;9.282;2023-04-01T02:43:24;7.90;99.90
2158;DHT22;41972;48.774;9.282;2023-04-01T02:45:50;7.80;99.90
2158;DHT22;41972;48.774;9.282;2023-04-01T02:48:16;7.80;99.90
2158;DHT22;41972;48.774;9.282;2023-04-01T02:50:41;7.80;99.90
2158;DHT22;41972;48.774;9.282;2023-04-01T02:53:07;7.80;99.90
2158;DHT22;41972;48.774;9.282;2023-04-01T02:55:33;7.70;99.90
2158;DHT22;41972;48.774;9.282;2023-04-01T02:57:59;7.60;99.90
2158;DHT22;41972;48.774;9.282;2023-04-01T03:00:25;7.60;99.90
2158;DHT22;41972;48.774;9.282;2023-04-01T03:02:51;7.60;99.90
2158;DHT22;41972;48.774;9.282;2023-04-01T03:05:17;7.60;99.90
2158;DHT22;41972;48.774;9.282;2023-04-01T03:07:43;7.70;99.90
2158;DHT22;41972;48.774;9.282;2023-04-01T03:10:09;7.70;99.90
2158;DHT22;41972;48.774;9.282;2023-04-01T03:12:35;7.70;99.90
2158;DHT22;41972;48.774;9.282;2023-04-01T03:15:00;7.60;99.90
2158;DHT22;41972;48.774;9.282;2023-04-01T03:17:26;7.60;99.90
2158;DHT22;41972;48.774;9.282;2023-04-01T03:19:52;7.70;99.90
2158;DHT22;41972;48.774;9.282;2023-04-01T03:22:17;7.80;99.90
2158;DHT22;41972;48.774;9.282;2023-04-01T03:24:46;7.70;99.90
2158;DHT22;41972;48.774;9.282;2023-04-01T03:27:12;7.70;99.90
2158;DHT22;41972;48.774;9.282;2023-04-01T03:29:38;7.70;99.90
2158;DHT22;41972;48.774;9.282;2023-04-01T03:32:04;7.60;99.90
2158;DHT22;41972;48.774;9.282;2023-04-01T03:34:30;7.60;99.90
2158;DHT22;41972;48.774;9.282;2023-04-01T03:36:56;7.50;99.90
2158;DHT22;41972;48.774;9.282;2023-04-01T03:39:21;7.50;99.90
2158;DHT22;41972;48.774;9.282;2023-04-01T03:41:47;7.60;99.90
2158;DHT22;41972;48.774;9.282;2023-04-01T03:44:13;7.50;99.90
2158;DHT22;41972;48.774;9.282;2023-04-01T03:46:38;7.60;99.90
2158;DHT22;41972;48.774;9.282;2023-04-01T03:49:11;7.70;99.90
2158;DHT22;41972;48.774;9.282;2023-04-01T03:51:38;7.70;99.90
2158;DHT22;41972;48.774;9.282;2023-04-01T03:54:04;7.70;99.90
2158;DHT22;41972;48.774;9.282;2023-04-01T03:56:30;7.80;99.90
2158;DHT22;41972;48.774;9.282;2023-04-01T03:58:56;7.70;99.90
2158;DHT22;41972;48.774;9.282;2023-04-01T04:01:23;7.80;99.90
2158;DHT22;41972;48.774;9.282;2023-04-01T04:03:49;7.70;99.90
2158;DHT22;41972;48.774;9.282;2023-04-01T04:06:17;7.70;99.90
2158;DHT22;41972;48.774;9.282;2023-04-01T04:08:44;7.50;99.90
2158;DHT22;41972;48.774;9.282;2023-04-01T04:11:09;7.50;99.90
2158;DHT22;41972;48.774;9.282;2023-04-01T04:13:35;7.40;99.90
2158;DHT22;41972;48.774;9.282;2023-04-01T04:16:02;7.30;99.90
2158;DHT22;41972;48.774;9.282;2023-04-01T04:18:27;7.30;99.90
2158;DHT22;41972;48.774;9.282;2023-04-01T04:20:53;7.10;99.90
2158;DHT22;41972;48.774;9.282;2023-04-01T04:23:19;7.10;99.90
2158;DHT22;41972;48.774;9.282;2023-04-01T04:26:02;7.00;99.90
2158;DHT22;41972;48.774;9.282;2023-04-01T04:28:29;7.00;99.90
2158;DHT22;41972;48.774;9.282;2023-04-01T04:30:54;7.00;99.90
2158;DHT22;41972;48.774;9.282;2023-04-01T04:33:21;7.10;99.90
2158;DHT22;41972;48.774;9.282;2023-04-01T04:35:47;7.00;99.90
2158;DHT22;41972;48.774;9.282;2023-04-01T04:38:12;7.10;99.90
2158;DHT22;41972;48.774;9.282;2023-04-01T04:40:39;6.90;99.90
2158;DHT22;41972;48.774;9.282;2023-04-01T04:43:05;6.90;99.90
2158;DHT22;41972;48.774;9.282;2023-04-01T04:45:30;6.90;99.90
2158;DHT22;41972;48.774;9.282;2023-04-01T04:47:56;6.90;99.90
2158;DHT22;41972;48.774;9.282;2023-04-01T04:50:23;6.80;99.90
2158;DHT22;41972;48.774;9.282;2023-04-01T04:52:49;6.80;99.90
2158;DHT22;41972;48.774;9.282;2023-04-01T04:55:14;6.90;99.90
2158;DHT22;41972;48.774;9.282;2023-04-01T04:57:40;6.90;99.90
2158;DHT22;41972;48.774;9.282;2023-04-01T05:00:07;6.90;99.90
2158;DHT22;41972;48.774;9.282;2023-04-01T05:02:33;7.00;99.90
2158;DHT22;41972;48.774;9.282;2023-04-01T05:04:58;7.10;99.90
2158;DHT22;41972;48.774;9.282;2023-04-01T05:07:24;7.00;99.90
2158;DHT22;41972;48.774;9.282;2023-04-01T05:09:49;7.10;99.90
2158;DHT22;41972;48.774;9.282;2023-04-01T05:12:15;7.20;99.90
2158;DHT22;41972;48.774;9.282;2023-04-01T05:14:40;7.20;99.90
2158;DHT22;41972;48.774;9.282;2023-04-01T05:17:10;7.20;99.90
2158;DHT22;41972;48.774;9.282;2023-04-01T05:19:36;7.20;99.90
2158;DHT22;41972;48.774;9.282;2023-04-01T05:22:01;7.30;99.90
2158;DHT22;41972;48.774;9.282;2023-04-01T05:24:27;7.30;99.90
2158;DHT22;41972;48.774;9.282;2023-04-01T05:26:52;7.40;99.90
2158;DHT22;41972;48.774;9.282;2023-04-01T05:29:18;7.30;99.90
2158;DHT22;41972;48.774;9.282;2023-04-01T05:31:43;7.40;99.90
2158;DHT22;41972;48.774;9.282;2023-04-01T05:34:09;7.40;99.90
2158;DHT22;41972;48.774;9.282;2023-04-01T05:36:35;7.40;99.90
2158;DHT22;41972;48.774;9.282;2023-04-01T05:39:01;7.50;99.90
2158;DHT22;41972;48.774;9.282;2023-04-01T05:41:27;7.50;99.90
2158;DHT22;41972;48.774;9.282;2023-04-01T05:43:53;7.60;99.90
2158;DHT22;41972;48.774;9.282;2023-04-01T05:46:18;7.60;99.90
2158;DHT22;41972;48.774;9.282;2023-04-01T05:48:44;7.70;99.90
2158;DHT22;41972;48.774;9.282;2023-04-01T05:51:13;7.80;99.90
2158;DHT22;41972;48.774;9.282;2023-04-01T05:53:40;7.90;99.90
2158;DHT22;41972;48.774;9.282;2023-04-01T05:56:06;7.90;99.90
2158;DHT22;41972;48.774;9.282;2023-04-01T05:58:35;7.90;99.90
2158;DHT22;41972;48.774;9.282;2023-04-01T06:01:06;8.00;99.90
2158;DHT22;41972;48.774;9.282;2023-04-01T06:03:32;8.10;99.90
2158;DHT22;41972;48.774;9.282;2023-04-01T06:05:58;8.30;99.90
2158;DHT22;41972;48.774;9.282;2023-04-01T06:08:24;8.40;99.90
2158;DHT22;41972;48.774;9.282;2023-04-01T06:26:43;8.80;99.90
2158;DHT22;41972;48.774;9.282;2023-04-01T06:37:44;9.20;99.90
2158;DHT22;41972;48.774;9.282;2023-04-01T06:40:49;9.20;99.90
2158;DHT22;41972;48.774;9.282;2023-04-01T06:45:55;9.40;99.90
2158;DHT22;41972;48.774;9.282;2023-04-01T06:54:04;9.50;99.90
2158;DHT22;41972;48.774;9.282;2023-04-01T06:56:32;9.10;99.90
2158;DHT22;41972;48.774;9.282;2023-04-01T06:58:59;9.10;99.90
2158;DHT22;41972;48.774;9.282;2023-04-01T07:01:35;9.20;99.90
2158;DHT22;41972;48.774;9.282;2023-04-01T07:04:17;9.30;99.90
2158;DHT22;41972;48.774;9.282;2023-04-01T07:06:55;9.30;99.90
2158;DHT22;41972;48.774;9.282;2023-04-01T07:09:31;9.10;99.90
2158;DHT22;41972;48.774;9.282;2023-04-01T07:12:15;9.30;99.90
2158;DHT22;41972;48.774;9.282;2023-04-01T07:14:43;9.30;99.90
2158;DHT22;41972;48.774;9.282;2023-04-01T07:17:11;9.30;99.90
2158;DHT22;41972;48.774;9.282;2023-04-01T07:24:55;9.20;99.90
2158;DHT22;41972;48.774;9.282;2023-04-01T07:27:23;9.40;99.90
2158;DHT22;41972;48.774;9.282;2023-04-01T07:29:49;9.50;99.90
2158;DHT22;41972;48.774;9.282;2023-04-01T07:35:45;9.60;99.90
2158;DHT22;41972;48.774;9.282;2023-04-01T07:38:16;9.20;99.90
2158;DHT22;41972;48.774;9.282;2023-04-01T07:41:11;9.10;99.90
2158;DHT22;41972;48.774;9.282;2023-04-01T07:46:32;9.40;99.90
2158;DHT22;41972;48.774;9.282;2023-04-01T07:49:30;9.40;99.90
2158;DHT22;41972;48.774;9.282;2023-04-01T07:54:44;9.20;99.90
2158;DHT22;41972;48.774;9.282;2023-04-01T07:57:23;9.40;99.90
2158;DHT22;41972;48.774;9.282;2023-04-01T08:00:10;9.30;99.90
2158;DHT22;41972;48.774;9.282;2023-04-01T08:05:14;9.40;99.90
2158;DHT22;41972;48.774;9.282;2023-04-01T08:07:45;9.40;99.90
2158;DHT22;41972;48.774;9.282;2023-04-01T08:10:23;9.60;99.90
2158;DHT22;41972;48.774;9.282;2023-04-01T08:16:14;9.80;99.90
2158;DHT22;41972;48.774;9.282;2023-04-01T08:18:54;9.70;99.90
2158;DHT22;41972;48.774;9.282;2023-04-01T08:21:27;9.50;99.90
2158;DHT22;41972;48.774;9.282;2023-04-01T08:24:07;9.70;99.90
2158;DHT22;41972;48.774;9.282;2023-04-01T08:26:42;9.80;99.90
2158;DHT22;41972;48.774;9.282;2023-04-01T08:34:16;10.20;99.90
2158;DHT22;41972;48.774;9.282;2023-04-01T08:36:46;10.20;99.90
2158;DHT22;41972;48.774;9.282;2023-04-01T08:55:51;9.70;99.90
2158;DHT22;41972;48.774;9.282;2023-04-01T09:01:24;9.10;99.90
2158;DHT22;41972;48.774;9.282;2023-04-01T09:04:05;8.90;99.90
2158;DHT22;41972;48.774;9.282;2023-04-01T09:20:07;9.10;99.90
2158;DHT22;41972;48.774;9.282;2023-04-01T09:28:19;9.30;99.90
2158;DHT22;41972;48.774;9.282;2023-04-01T09:31:07;9.40;99.90
2158;DHT22;41972;48.774;9.282;2023-04-01T09:36:21;9.30;99.90
2158;DHT22;41972;48.774;9.282;2023-04-01T09:38:56;9.50;99.90
2158;DHT22;41972;48.774;9.282;2023-04-01T09:44:22;9.60;99.90
2158;DHT22;41972;48.774;9.282;2023-04-01T09:47:10;9.60;99.90
2158;DHT22;41972;48.774;9.282;2023-04-01T09:52:26;10.00;99.90
2158;DHT22;41972;48.774;9.282;2023-04-01T10:00:59;9.60;99.90
2158;DHT22;41972;48.774;9.282;2023-04-01T10:23:18;9.60;99.90
2158;DHT22;41972;48.774;9.282;2023-04-01T10:26:16;9.60;99.90
2158;DHT22;41972;48.774;9.282;2023-04-01T10:29:00;9.60;99.90
2158;DHT22;41972;48.774;9.282;2023-04-01T10:43:32;10.20;99.90
2158;DHT22;41972;48.774;9.282;2023-04-01T10:48:45;10.50;99.90
2158;DHT22;41972;48.774;9.282;2023-04-01T11:00:14;9.90;99.90
2158;DHT22;41972;48.774;9.282;2023-04-01T11:03:21;10.20;99.90
2158;DHT22;41972;48.774;9.282;2023-04-01T11:17:04;10.20;99.90
2158;DHT22;41972;48.774;9.282;2023-04-01T11:22:50;10.30;99.90
2158;DHT22;41972;48.774;9.282;2023-04-01T11:25:34;10.10;99.90
2158;DHT22;41972;48.774;9.282;2023-04-01T11:31:17;10.50;99.90
2158;DHT22;41972;48.774;9.282;2023-04-01T11:44:26;11.00;99.90
2158;DHT22;41972;48.774;9.282;2023-04-01T11:49:55;11.00;99.90
2158;DHT22;41972;48.774;9.282;2023-04-01T11:55:31;10.70;99.90
2158;DHT22;41972;48.774;9.282;2023-04-01T12:03:39;10.90;99.90
2158;DHT22;41972;48.774;9.282;2023-04-01T12:06:23;11.10;99.90
2158;DHT22;41972;48.774;9.282;2023-04-01T12:14:20;10.70;99.90
2158;DHT22;41972;48.774;9.282;2023-04-01T12:17:17;11.10;99.90
2158;DHT22;41972;48.774;9.282;2023-04-01T12:19:56;11.00;99.90
2158;DHT22;41972;48.774;9.282;2023-04-01T12:22:38;10.80;99.90
2158;DHT22;41972;48.774;9.282;2023-04-01T12:28:40;10.60;99.90
2158;DHT22;41972;48.774;9.282;2023-04-01T12:34:16;10.70;99.90
2158;DHT22;41972;48.774;9.282;2023-04-01T12:37:03;10.80;99.90
2158;DHT22;41972;48.774;9.282;2023-04-01T12:50:54;10.70;99.90
2158;DHT22;41972;48.774;9.282;2023-04-01T13:05:15;11.10;99.90
2158;DHT22;41972;48.774;9.282;2023-04-01T13:07:51;11.10;99.90
2158;DHT22;41972;48.774;9.282;2023-04-01T13:10:38;11.20;99.90
2158;DHT22;41972;48.774;9.282;2023-04-01T13:13:29;11.00;99.90
2158;DHT22;41972;48.774;9.282;2023-04-01T13:21:46;11.00;99.90
2158;DHT22;41972;48.774;9.282;2023-04-01T13:24:44;10.90;99.90
2158;DHT22;41972;48.774;9.282;2023-04-01T13:27:32;10.90;99.90
2158;DHT22;41972;48.774;9.282;2023-04-01T13:33:01;10.60;99.90
2158;DHT22;41972;48.774;9.282;2023-04-01T13:41:05;11.20;99.90
2158;DHT22;41972;48.774;9.282;2023-04-01T13:43:35;11.10;99.90
2158;DHT22;41972;48.774;9.282;2023-04-01T13:46:06;11.00;99.90
2158;DHT22;41972;48.774;9.282;2023-04-01T13:54:34;11.50;99.90
2158;DHT22;41972;48.774;9.282;2023-04-01T13:57:23;11.30;99.90
2158;DHT22;41972;48.774;9.282;2023-04-01T14:10:44;11.50;99.90
2158;DHT22;41972;48.774;9.282;2023-04-01T14:13:28;11.70;99.90
2158;DHT22;41972;48.774;9.282;2023-04-01T14:16:25;11.40;99.90
2158;DHT22;41972;48.774;9.282;2023-04-01T14:32:51;11.50;99.90
2158;DHT22;41972;48.774;9.282;2023-04-01T14:35:38;11.60;99.90
2158;DHT22;41972;48.774;9.282;2023-04-01T14:44:16;10.90;99.90
2158;DHT22;41972;48.774;9.282;2023-04-01T14:49:37;10.80;99.90
2158;DHT22;41972;48.774;9.282;2023-04-01T14:52:31;10.60;99.90
2158;DHT22;41972;48.774;9.282;2023-04-01T14:55:15;10.90;99.90
2158;DHT22;41972;48.774;9.282;2023-04-01T15:03:33;10.60;99.90
2158;DHT22;41972;48.774;9.282;2023-04-01T15:19:42;10.60;99.90
2158;DHT22;41972;48.774;9.282;2023-04-01T15:33:53;10.50;99.90
2158;DHT22;41972;48.774;9.282;2023-04-01T15:39:01;10.50;99.90
2158;DHT22;41972;48.774;9.282;2023-04-01T15:45:41;10.60;99.90
2158;DHT22;41972;48.774;9.282;2023-04-01T15:48:05;10.60;99.90
2158;DHT22;41972;48.774;9.282;2023-04-01T15:59:32;10.40;99.90
2158;DHT22;41972;48.774;9.282;2023-04-01T16:04:59;10.40;99.90
2158;DHT22;41972;48.774;9.282;2023-04-01T16:07:48;10.40;99.90
2158;DHT22;41972;48.774;9.282;2023-04-01T16:10:38;10.40;99.90
2158;DHT22;41972;48.774;9.282;2023-04-01T16:13:35;10.30;99.90
2158;DHT22;41972;48.774;9.282;2023-04-01T16:17:00;10.50;99.90
2158;DHT22;41972;48.774;9.282;2023-04-01T16:19:53;10.50;99.90
2158;DHT22;41972;48.774;9.282;2023-04-01T16:22:33;10.40;99.90
2158;DHT22;41972;48.774;9.282;2023-04-01T16:28:36;10.30;99.90
2158;DHT22;41972;48.774;9.282;2023-04-01T16:31:10;10.20;99.90
2158;DHT22;41972;48.774;9.282;2023-04-01T16:36:48;10.20;99.90
2158;DHT22;41972;48.774;9.282;2023-04-01T16:39:27;10.40;99.90
2158;DHT22;41972;48.774;9.282;2023-04-01T16:42:55;10.40;99.90
2158;DHT22;41972;48.774;9.282;2023-04-01T16:47:39;10.50;99.90
2158;DHT22;41972;48.774;9.282;2023-04-01T16:55:56;10.30;99.90
2158;DHT22;41972;48.774;9.282;2023-04-01T16:58:36;10.30;99.90
2158;DHT22;41972;48.774;9.282;2023-04-01T17:03:45;10.30;99.90
2158;DHT22;41972;48.774;9.282;2023-04-01T17:06:44;10.10;99.90
2158;DHT22;41972;48.774;9.282;2023-04-01T17:09:19;10.20;99.90
2158;DHT22;41972;48.774;9.282;2023-04-01T17:13:03;10.30;99.90
2158;DHT22;41972;48.774;9.282;2023-04-01T17:20:24;10.20;99.90
2158;DHT22;41972;48.774;9.282;2023-04-01T17:22:54;10.30;99.90
2158;DHT22;41972;48.774;9.282;2023-04-01T17:25:38;10.20;99.90
2158;DHT22;41972;48.774;9.282;2023-04-01T17:28:20;10.30;99.90
2158;DHT22;41972;48.774;9.282;2023-04-01T17:31:09;10.30;99.90
2158;DHT22;41972;48.774;9.282;2023-04-01T17:42:50;10.30;99.90
2158;DHT22;41972;48.774;9.282;2023-04-01T17:50:54;10.20;99.90
2158;DHT22;41972;48.774;9.282;2023-04-01T17:56:12;10.10;99.90
2158;DHT22;41972;48.774;9.282;2023-04-01T17:59:01;10.10;99.90
2158;DHT22;41972;48.774;9.282;2023-04-01T18:10:35;10.00;99.90
2158;DHT22;41972;48.774;9.282;2023-04-01T18:18:38;10.00;99.90
2158;DHT22;41972;48.774;9.282;2023-04-01T18:23:58;10.10;99.90
2158;DHT22;41972;48.774;9.282;2023-04-01T18:26:31;9.90;99.90
2158;DHT22;41972;48.774;9.282;2023-04-01T18:31:33;9.60;99.90
2158;DHT22;41972;48.774;9.282;2023-04-01T18:34:12;9.50;99.90
2158;DHT22;41972;48.774;9.282;2023-04-01T18:36:44;9.50;99.90
2158;DHT22;41972;48.774;9.282;2023-04-01T18:39:22;9.40;99.90
2158;DHT22;41972;48.774;9.282;2023-04-01T18:44:50;9.50;99.90
2158;DHT22;41972;48.774;9.282;2023-04-01T18:47:44;9.40;99.90
2158;DHT22;41972;48.774;9.282;2023-04-01T18:50:50;9.40;99.90
2158;DHT22;41972;48.774;9.282;2023-04-01T18:56:27;9.30;99.90
2158;DHT22;41972;48.774;9.282;2023-04-01T18:59:02;9.30;99.90
2158;DHT22;41972;48.774;9.282;2023-04-01T19:04:38;9.00;99.90
2158;DHT22;41972;48.774;9.282;2023-04-01T19:09:50;8.90;99.90
2158;DHT22;41972;48.774;9.282;2023-04-01T19:12:38;8.80;99.90
2158;DHT22;41972;48.774;9.282;2023-04-01T19:18:08;8.70;99.90
2158;DHT22;41972;48.774;9.282;2023-04-01T19:20:46;8.50;99.90
2158;DHT22;41972;48.774;9.282;2023-04-01T19:23:18;8.40;99.90
2158;DHT22;41972;48.774;9.282;2023-04-01T19:25:53;8.40;99.90
2158;DHT22;41972;48.774;9.282;2023-04-01T19:28:51;8.30;99.90
2158;DHT22;41972;48.774;9.282;2023-04-01T19:31:55;8.20;99.90
2158;DHT22;41972;48.774;9.282;2023-04-01T19:34:43;8.10;99.90
2158;DHT22;41972;48.774;9.282;2023-04-01T19:37:26;8.00;99.90
2158;DHT22;41972;48.774;9.282;2023-04-01T19:40:18;8.00;99.90
2158;DHT22;41972;48.774;9.282;2023-04-01T19:43:04;8.10;99.90
2158;DHT22;41972;48.774;9.282;2023-04-01T19:46:07;8.20;99.90
2158;DHT22;41972;48.774;9.282;2023-04-01T19:49:00;8.20;99.90
2158;DHT22;41972;48.774;9.282;2023-04-01T19:51:48;8.20;99.90
2158;DHT22;41972;48.774;9.282;2023-04-01T20:00:24;8.30;99.90
2158;DHT22;41972;48.774;9.282;2023-04-01T20:05:32;8.40;99.90
2158;DHT22;41972;48.774;9.282;2023-04-01T20:16:13;8.40;99.90
2158;DHT22;41972;48.774;9.282;2023-04-01T20:18:58;8.40;99.90
2158;DHT22;41972;48.774;9.282;2023-04-01T20:21:37;8.50;99.90
2158;DHT22;41972;48.774;9.282;2023-04-01T20:24:20;8.50;99.90
2158;DHT22;41972;48.774;9.282;2023-04-01T20:26:58;8.50;99.90
2158;DHT22;41972;48.774;9.282;2023-04-01T20:38:04;8.50;99.90
2158;DHT22;41972;48.774;9.282;2023-04-01T20:43:27;8.50;99.90
2158;DHT22;41972;48.774;9.282;2023-04-01T20:46:16;8.50;99.90
2158;DHT22;41972;48.774;9.282;2023-04-01T20:51:30;8.40;99.90
2158;DHT22;41972;48.774;9.282;2023-04-01T20:54:22;8.40;99.90
2158;DHT22;41972;48.774;9.282;2023-04-01T21:05:19;8.40;99.90
2158;DHT22;41972;48.774;9.282;2023-04-01T21:18:36;8.30;99.90
2158;DHT22;41972;48.774;9.282;2023-04-01T21:29:37;8.20;99.90
2158;DHT22;41972;48.774;9.282;2023-04-01T21:32:54;8.20;99.90
2158;DHT22;41972;48.774;9.282;2023-04-01T21:46:46;8.10;99.90
2158;DHT22;41972;48.774;9.282;2023-04-01T21:58:00;8.20;99.90
2158;DHT22;41972;48.774;9.282;2023-04-01T22:03:53;8.20;99.90
2158;DHT22;41972;48.774;9.282;2023-04-01T22:06:22;8.10;99.90
2158;DHT22;41972;48.774;9.282;2023-04-01T22:09:05;8.10;99.90
2158;DHT22;41972;48.774;9.282;2023-04-01T22:14:11;8.00;99.90
2158;DHT22;41972;48.774;9.282;2023-04-01T22:19:23;8.10;99.90
2158;DHT22;41972;48.774;9.282;2023-04-01T22:22:08;8.30;99.90
2158;DHT22;41972;48.774;9.282;2023-04-01T22:33:02;8.30;99.90
2158;DHT22;41972;48.774;9.282;2023-04-01T22:35:50;8.30;99.90
2158;DHT22;41972;48.774;9.282;2023-04-01T22:43:49;8.30;99.90
2158;DHT22;41972;48.774;9.282;2023-04-01T22:46:19;8.20;99.90
2158;DHT22;41972;48.774;9.282;2023-04-01T22:49:03;8.30;99.90
2158;DHT22;41972;48.774;9.282;2023-04-01T22:51:50;8.40;99.90
2158;DHT22;41972;48.774;9.282;2023-04-01T22:54:29;8.20;99.90
2158;DHT22;41972;48.774;9.282;2023-04-01T22:57:07;8.30;99.90
2158;DHT22;41972;48.774;9.282;2023-04-01T23:02:12;8.30;99.90
2158;DHT22;41972;48.774;9.282;2023-04-01T23:04:42;8.30;99.90
2158;DHT22;41972;48.774;9.282;2023-04-01T23:11:02;8.30;99.90
2158;DHT22;41972;48.774;9.282;2023-04-01T23:13:03;8.40;99.90
2158;DHT22;41972;48.774;9.282;2023-04-01T23:15:30;8.30;99.90
2158;DHT22;41972;48.774;9.282;2023-04-01T23:18:05;8.30;99.90
2158;DHT22;41972;48.774;9.282;2023-04-01T23:21:26;8.30;99.90
2158;DHT22;41972;48.774;9.282;2023-04-01T23:24:15;8.30;99.90
2158;DHT22;41972;48.774;9.282;2023-04-01T23:26:55;8.20;99.90
2158;DHT22;41972;48.774;9.282;2023-04-01T23:29:22;8.20;99.90
2158;DHT22;41972;48.774;9.282;2023-04-01T23:31:59;8.20;99.90
2158;DHT22;41972;48.774;9.282;2023-04-01T23:34:34;8.20;99.90
2158;DHT22;41972;48.774;9.282;2023-04-01T23:37:07;8.20;99.90
2158;DHT22;41972;48.774;9.282;2023-04-01T23:39:37;8.10;99.90
2158;DHT22;41972;48.774;9.282;2023-04-01T23:42:28;8.20;99.90
2158;DHT22;41972;48.774;9.282;2023-04-01T23:45:00;8.20;99.90
2158;DHT22;41972;48.774;9.282;2023-04-01T23:49:59;8.10;99.90
2158;DHT22;41972;48.774;9.282;2023-04-01T23:52:29;8.10;99.90
2158;DHT22;41972;48.774;9.282;2023-04-01T23:55:03;8.10;99.90
2158;DHT22;41972;48.774;9.282;2023-04-01T23:57:31;8.10;99.90
